KSSC/SSC METAR and TAF weather

Enter ICAO airport designator
Station Type Date Time Source
KSSC METAR 2018/12/10 08:26 UTC NOAA

KSSC 100826Z AUTO 34006KT 10SM -RA SCT008 M A2995 RMK AO2 RAE02UPB02E10RAB10 SLPNO ALSTG ESTMD $


Station Type Date Time Source
KSSC Decoded METAR 2018/12/10 08:26 UTC NOAA

Shaw Air Force Base, SC, United States (KSSC) 33-58N 080-29W 73M
Dec 10, 2018 - 03:26 AM EST / 2018.12.10 0826 UTC
Wind: from the NNW (340 degrees) at 7 MPH (6 KT):0
Visibility: 10 mile(s):0
Sky conditions: partly cloudy
Weather: light rain
Pressure (altimeter): 29.95 in. Hg (1014 hPa)
ob: KSSC 100826Z AUTO 34006KT 10SM -RA SCT008 M A2995 RMK AO2 RAE02UPB02E10RAB10 SLPNO ALSTG ESTMD
cycle: 8

Station Type Date Time Source
KSSC TAF 2018/12/10 08:09 UTC NOAA

TAF KSSC 100800Z 1008/1114 35009KT 9999 OVC009 QNH2993INS
BECMG 1010/1011 34009KT 9000 -RA OVC005 610703 QNH2996INS
TEMPO 1011/1014 4800 -RASN
BECMG 1100/1101 35010G15KT 4800 -SN OVC006 610064 620467 QNH3013INS
BECMG 1110/1111 32006KT 9999 NSW SCT010 OVC030 QNH3017INS TX04/1020Z TN00/1106Z


Example: see airport list